x

Big Sable Point, Mi (bsbm4) Weather Station

9:40am - Tue 29th Jul 2014 All times are CDT. -5 hours from GMT.

  • Wind
    6mph, 8mph gusts
  • Air Temp 61°f
  • Sea Pressure 1016.6mb
  • Big Sable Point, Mi
  • Big Sable Point, Mi

More Historic Weather Station data

Upgrade to MSW Pro to gain access to the past 30 days of data for over 8000 Wavebouys and Weather Stations around the globe.

Join Pro

Comparision Forecast

View Surf forecast
   
Tue 07/29 9:40am 6 8 mph 1016.6mb 61f
9:30am 5 9 mph 1016.6mb 61f
9:20am 5 7 mph 1016.6mb 61f
9:10am 5 8 mph 1016.6mb 61f
9:00am 3 7 mph 1016.6mb 60f
8:40am 3 6 mph 1016.6mb 59f
8:30am 5 7 mph 1016.6mb 59f
8:20am 5 7 mph 1016.6mb 58f
8:10am 6
mph
1016.6mb 56f
8:00am 3 5 mph 1016.6mb 55f
7:40am 1 2 mph 1016.6mb 55f
7:30am 1 2 mph 1016.6mb 55f
7:20am  -  3 mph 1016.3mb 55f
7:10am 2 6 mph 1016.3mb 53f
7:00am 5 7 mph 1016.3mb 54f
6:40am  -  1 mph 1016.3mb 55f
6:30am  -  mph 1016.3mb 55f
6:20am  -  2 mph 1015.9mb 55f
6:10am  -  2 mph 1015.9mb 54f
6:00am 2
mph
1015.9mb 54f
5:40am  -  2 mph 1015.6mb 55f
5:30am 1 5 mph 1015.6mb 55f
5:20am 3 5 mph 1015.6mb 55f
5:10am 2 5 mph 1015.6mb 55f
5:00am 2 5 mph 1015.6mb 54f
4:40am 3 7 mph 1015.6mb 54f
4:30am 5 9 mph 1015.6mb 54f
4:20am 7 9 mph 1015.6mb 54f
4:10am 7 9 mph 1015.6mb 54f
4:00am 7 11 mph 1015.6mb 54f
3:40am 7 10 mph 1015.6mb 54f
3:30am 9 11 mph 1015.6mb 54f
3:20am 7 11 mph 1015.6mb 54f
3:10am 8 13 mph 1015.6mb 53f
3:00am 8 11 mph 1015.6mb 53f
2:40am 9 11 mph 1015.9mb 54f
2:30am 7 11 mph 1016.3mb 55f
2:20am 9 13 mph 1015.9mb 55f
2:10am 9 11 mph 1016.3mb 54f
2:00am 8 13 mph 1016.3mb 54f
1:40am 9 11 mph 1016.3mb 55f
1:30am 8 11 mph 1016.6mb 55f
1:20am 8 10 mph 1016.6mb 55f
1:10am 7 10 mph 1016.6mb 55f
1:00am 8 10 mph 1016.6mb 55f
12:40am 7 10 mph 1016.6mb 55f
12:30am 7 9 mph 1016.9mb 55f
12:20am 7 10 mph 1016.9mb 54f
12:10am 7 9 mph 1016.9mb 54f
12:00am 7 9 mph 1016.9mb 53f
Mon 07/28 11:40pm 7 8 mph 1016.9mb 52f
11:30pm 6 8 mph 1016.9mb 52f
11:20pm 5 7 mph 1017.3mb 52f
11:10pm 6 7 mph 1017.3mb 52f
11:00pm 6 7 mph 1017.3mb 52f
10:40pm 5 6 mph 1017.6mb 52f
10:30pm 3 5 mph 1017.6mb 52f
10:20pm 2 5 mph 1017.6mb 52f
10:10pm 5 6 mph 1017.6mb 52f
10:00pm 3 5 mph 1017.6mb 53f
9:40pm 3 5 mph 1017.9mb 53f
9:30pm 3 6 mph 1017.9mb 53f
9:20pm 2 6 mph 1017.9mb 54f
9:10pm 5 6 mph 1017.9mb 54f
9:00pm 3 5 mph 1017.9mb 54f
8:40pm 7 9 mph 1017.9mb 54f
8:30pm  -  1 mph 1017.6mb 57f
8:20pm  -  1 mph 1017.6mb 59f
8:10pm 1 2 mph 1017.6mb 59f
8:00pm 2
mph
1017.6mb 59f
7:40pm 3 5 mph 1017.9mb 60f
7:30pm 2 3 mph 1017.9mb 61f
7:20pm 2 3 mph 1017.9mb 61f
7:10pm  -  3 mph 1017.9mb 61f
7:00pm 2 5 mph 1017.9mb 61f
6:40pm 2 6 mph 1017.9mb 61f
6:30pm 2 6 mph 1017.9mb 61f
6:20pm 3 5 mph 1018.3mb 61f
6:10pm 2 6 mph 1018.3mb 61f
6:00pm 3 6 mph 1018.3mb 60f
5:40pm 5 7 mph 1018.6mb 60f
5:30pm 6 8 mph 1018.6mb 60f
5:20pm 6 8 mph 1018.6mb 59f
5:10pm 6 8 mph 1018.6mb 59f
5:00pm 6 8 mph 1018.6mb 59f
4:40pm 6 8 mph 1018.6mb 59f
4:30pm 7 10 mph 1018.6mb 59f
4:20pm 8 10 mph 1018.6mb 59f
4:10pm 9 13 mph 1019mb 59f
4:00pm 9 14 mph 1019mb 59f
3:40pm 14 16 mph 1019mb 58f
3:30pm 13 17 mph 1019mb 58f
3:20pm 14 18 mph 1019mb 58f
3:10pm 15 20 mph 1019mb 58f
3:00pm 14 18 mph 1019mb 58f
2:40pm 13 18 mph 1019mb 58f
2:30pm 14 17 mph 1019mb 58f
2:20pm 15 18 mph 1018.6mb 58f
2:10pm 14 20 mph 1018.6mb 58f
2:00pm 15 21 mph 1018.6mb 58f
1:40pm 14 21 mph 1018.6mb 58f
1:30pm 16 21 mph 1018.3mb 58f
1:20pm 15 21 mph 1018.3mb 58f
1:10pm 16 21 mph 1018.3mb 57f
1:00pm 15 21 mph 1018.6mb 57f
12:40pm 16 21 mph 1018.3mb 56f
12:30pm 16 22 mph 1018.3mb 56f
12:20pm 16 24 mph 1018.3mb 56f
12:10pm 17 24 mph 1018.3mb 56f
12:00pm 17 26 mph 1018.3mb 56f
11:40am 22 26 mph 1018.3mb 56f
11:30am 18 26 mph 1018.3mb 56f
11:20am 21 28 mph 1018.3mb 55f
11:10am 22 28 mph 1018.3mb 55f
11:00am 22 28 mph 1018.3mb 56f
10:40am 24 30 mph 1018.3mb 55f
10:30am 23 30 mph 1018.3mb 55f
10:20am 23 30 mph 1018.3mb 55f
10:10am 22 30 mph 1018.3mb 55f
10:00am 23 29 mph 1017.9mb 55f
9:56am 22 29 mph 1017.9mb 55f
9:50am 23 29 mph 1017.9mb 55f
9:40am 18 30 mph 1017.9mb 55f
9:30am 23 29 mph 1017.9mb 55f
9:20am 24 31 mph 1017.9mb 55f
9:10am 22 29 mph 1017.9mb 55f
9:00am 22 28 mph 1017.9mb 54f
8:50am 24 29 mph 1017.9mb 54f
8:47am 20 29 mph 1017.6mb 54f
8:40am 21 25 mph 1017.6mb 54f
8:30am 20 25 mph 1017.6mb 54f
8:20am 20 25 mph 1017.6mb 55f
8:10am 24 29 mph 1017.3mb 54f
8:00am 20 26 mph 1016.9mb 55f
7:50am 18 28 mph 1016.9mb 55f
7:40am 23 29 mph 1016.9mb 54f
7:30am 24 29 mph 1016.6mb 54f
7:29am 20 29 mph 1016.6mb 54f
7:20am 23 28 mph 1016.6mb 54f
7:10am 21 28 mph 1016.6mb 54f
7:00am 22 28 mph 1016.6mb 54f
6:50am 20 28 mph 1016.3mb 54f
6:40am 20 26 mph 1016.3mb 54f
6:30am 18 26 mph 1015.9mb 54f
6:20am 20 29 mph 1015.9mb 54f
6:12am 20 29 mph 1015.6mb 54f
6:10am 14 28 mph 1015.9mb 54f
6:00am 21 26 mph 1015.6mb 54f
5:50am 18 28 mph 1015.6mb 54f
5:40am 20 28 mph 1015.2mb 54f
5:30am 17 26 mph 1015.2mb 54f
5:20am 20 29 mph 1015.2mb 54f
5:10am 22 26 mph 1014.9mb 54f
5:00am 21 29 mph 1014.9mb 55f
4:51am 22 29 mph 1014.6mb 55f
4:50am 22 29 mph 1014.6mb 55f
4:40am 22 30 mph 1014.6mb 55f
4:30am 21 30 mph 1014.6mb 55f
4:20am 17 29 mph 1014.2mb 55f
4:10am 15 28 mph 1014.2mb 55f
4:00am 21 29 mph 1014.2mb 55f
3:50am 18 30 mph 1014.2mb 55f
3:42am 20 29 mph 1013.9mb 55f
3:40am 23 28 mph 1013.9mb 55f
3:30am 17 25 mph 1013.9mb 55f
3:20am 21 28 mph 1013.9mb 55f
3:10am 20 29 mph 1013.9mb 56f
3:00am 20 28 mph 1013.9mb 56f
2:50am 18 29 mph 1013.5mb 56f
2:40am 20 28 mph 1013.5mb 56f
2:30am 20 29 mph 1013.5mb 56f
2:24am 23 29 mph 1013.5mb 56f
2:20am 18 29 mph 1013.5mb 56f
2:10am 21 30 mph 1013.2mb 56f
2:00am 18 29 mph 1013.2mb 56f
1:50am 20 29 mph 1013.2mb 56f
1:40am 22 29 mph 1013.2mb 56f
1:30am 18 30 mph 1013.2mb 57f
1:21am 23 30 mph 1012.9mb 57f
1:20am 23 32 mph 1013.2mb 57f
1:10am 16 30 mph 1013.2mb 57f
1:00am 21 30 mph 1012.9mb 57f
12:50am 21 29 mph 1012.9mb 58f
12:40am 18 29 mph 1012.9mb 58f
12:30am 20 29 mph 1012.9mb 58f
12:20am 23 29 mph 1012.9mb 58f
12:19am 20 29 mph 1012.9mb 58f
12:10am 20 28 mph 1013.2mb 58f
12:00am 17 24 mph 1013.2mb 58f
Sun 07/27 11:50pm 18 26 mph 1013.2mb 58f
11:40pm 20 26 mph 1013.2mb 58f
11:30pm 21 26 mph 1012.9mb 58f
11:20pm 23 29 mph 1012.9mb 58f
11:10pm 18 29 mph 1012.5mb 59f
11:03pm 17 29 mph 1012.5mb 59f
11:00pm 21 25 mph 1012.5mb 59f
10:50pm 16 25 mph 1012.5mb 58f
10:40pm 17 29 mph 1012.5mb 59f
10:30pm 16 25 mph 1012.5mb 59f
10:20pm 16 26 mph 1012.5mb 59f
10:10pm 16 29 mph 1012.2mb 59f
10:01pm 21 29 mph 1012.2mb 59f
10:00pm 21 30 mph 1012.2mb 59f
9:50pm 22 29 mph 1011.9mb 59f
9:40pm 21 32 mph 1011.5mb 60f
9:30pm 22 33 mph 1011.5mb 60f
9:20pm 22 31 mph 1011.2mb 60f
9:10pm 21 31 mph 1011.2mb 60f
9:00pm 20 32 mph 1011.2mb 60f
8:50pm 22 30 mph 1010.8mb 60f
8:40pm 21 30 mph 1010.8mb 59f
8:30pm 22 31 mph 1010.2mb 60f
8:20pm 28 38 mph 1010.2mb 60f
8:10pm 22 32 mph 1009.8mb 60f
8:00pm 24 33 mph 1009.5mb 59f
7:50pm 23 36 mph 1009.1mb 60f
7:40pm 24 34 mph 1009.1mb 60f
7:30pm 23 32 mph 1008.8mb 60f
7:20pm 22 33 mph 1008.8mb 60f
7:10pm 23 36 mph 1008.5mb 60f
7:00pm 28 39 mph 1008.1mb 60f
6:50pm 31 38 mph 1007.8mb 60f
6:40pm 28 34 mph 1007.5mb 61f
6:30pm 29 36 mph 1007.5mb 61f
6:20pm 25 32 mph 1007.5mb 61f
6:10pm 24 32 mph 1007.1mb 60f
6:00pm 22 30 mph 1007.1mb 61f
5:50pm 21 25 mph 1007.1mb 61f
5:40pm 18 22 mph 1007.5mb 60f
5:30pm 16 23 mph 1007.5mb 59f
5:20pm 21 24 mph 1007.5mb 59f
5:10pm 17 21 mph 1007.5mb 60f
5:00pm 17 20 mph 1007.1mb 63f
4:50pm 8 13 mph 1006.4mb 64f
4:40pm 10 15 mph 1006.1mb 63f
4:30pm 11 16 mph 1006.1mb 63f
4:20pm 13 20 mph 1005.8mb 62f
4:10pm 13 22 mph 1005.8mb 63f
4:00pm 16 23 mph 1005.8mb 62f
3:50pm 16 23 mph 1005.8mb 62f
3:40pm 17 24 mph 1006.1mb 62f
3:30pm 17 30 mph 1006.1mb 62f
3:20pm 20 28 mph 1005.8mb 62f
3:10pm 20 30 mph 1005.4mb 63f
3:00pm 15 41 mph 1005.8mb 63f
2:50pm  -  mph 1006.1mb 63f
2:40pm 30 37 mph 1006.1mb 67f
2:30pm 8 11 mph 1005.8mb 69f
2:20pm 7 10 mph 1005.8mb 69f
2:10pm 9 13 mph 1005.8mb 70f
2:00pm 10 14 mph 1005.8mb 71f
1:50pm 9 11 mph 1005.4mb 71f
1:40pm 8 10 mph 1005.8mb 70f
1:30pm 7 8 mph 1005.8mb 70f
1:20pm 6 8 mph 1005.8mb 70f
1:10pm 6 9 mph 1005.8mb 70f
1:00pm 7 9 mph 1005.8mb 69f
12:50pm 6 9 mph 1005.8mb 69f
12:40pm 7 9 mph 1006.1mb 69f
12:30pm 7 10 mph 1006.1mb 69f
12:20pm 7 9 mph 1005.8mb 69f
12:10pm 7 11 mph 1006.1mb 68f
12:00pm 8 13 mph 1006.1mb 68f
11:50am 8 11 mph 1006.1mb 69f
11:40am 8 10 mph 1006.1mb 69f
11:30am 7 10 mph 1006.1mb 69f
11:20am 7 10 mph 1006.1mb 70f
11:10am 9 11 mph 1006.1mb 69f
11:00am 8 10 mph 1006.1mb 69f
10:50am 8 13 mph 1006.1mb 69f
10:40am 8 11 mph 1006.1mb 69f
10:30am 7 10 mph 1006.4mb 68f
10:20am 8 11 mph 1006.4mb 68f
10:10am 8 13 mph 1006.4mb 68f
10:00am 9 11 mph 1006.8mb 68f
9:50am 9 15 mph 1006.4mb 68f
9:40am 10 15 mph 1006.4mb 67f
9:30am 9 14 mph 1006.4mb 67f
9:20am 9 14 mph 1006.4mb 66f
9:10am 8 13 mph 1006.4mb 66f
9:00am 8 13 mph 1006.8mb 65f
8:50am 10 11 mph 1006.4mb 64f
8:40am 8 14 mph 1006.8mb 65f
8:30am 9 14 mph 1006.4mb 65f
8:20am 14 18 mph 1006.8mb 64f
8:10am 7 9 mph 1006.4mb 65f
8:00am 8 16 mph 1006.4mb 64f
7:50am 13 16 mph 1007.1mb 64f
7:40am 8 14 mph 1006.8mb 64f
7:30am 8 13 mph 1007.1mb 64f
7:20am 10 14 mph 1007.1mb 64f
7:10am 10 14 mph 1006.8mb 64f
7:00am 11 15 mph 1006.4mb 65f
6:50am 10 14 mph 1006.4mb 65f
6:40am 9 14 mph 1006.8mb 65f
6:30am 9 15 mph 1006.4mb 65f
6:20am 11 15 mph 1006.4mb 65f
6:10am 10 14 mph 1006.4mb 65f
6:00am 10 14 mph 1006.8mb 65f
5:50am 8 11 mph 1006.8mb 65f
5:40am 7 10 mph 1006.4mb 65f
5:30am 5 6 mph 1006.4mb 65f
5:20am 2 8 mph 1006.8mb 65f
5:10am 7 11 mph 1006.8mb 65f
5:00am 10 15 mph 1006.8mb 65f
4:50am 13 17 mph 1007.1mb 65f
4:40am 11 15 mph 1007.1mb 65f
4:30am 9 14 mph 1007.1mb 65f
4:20am 9 13 mph 1007.1mb 65f
4:10am 8 13 mph 1007.1mb 65f
4:00am 9 13 mph 1007.5mb 65f
3:50am 9 15 mph 1007.5mb 65f
3:40am 9 13 mph 1007.8mb 65f
3:30am 8 13 mph 1007.8mb 66f
3:20am 8 9 mph 1007.8mb 67f
3:10am 3 6 mph 1008.1mb 68f
3:00am 3 6 mph 1008.1mb 68f
2:50am 5 8 mph 1008.1mb 67f
2:40am 6 13 mph 1008.1mb 66f
2:30am 9 13 mph 1008.1mb 67f
2:20am 8 9 mph 1008.5mb 66f
2:10am 8 10 mph 1008.5mb 65f
2:00am 7 9 mph 1008.5mb 65f
1:50am 5 8 mph 1008.5mb 65f
1:40am 5 10 mph 1008.5mb 64f
1:30am 10 13 mph 1008.8mb 65f
1:20am 8 9 mph 1008.8mb 65f
1:10am 5 6 mph 1008.5mb 65f
1:00am 3 6 mph 1008.5mb 64f
12:50am 5 7 mph 1008.5mb 65f
12:40am 5 7 mph 1008.5mb 65f
12:30am 5 8 mph 1008.8mb 65f
12:20am 5 10 mph 1008.8mb 65f
12:10am 10 14 mph 1008.8mb 65f
12:00am 11 16 mph 1008.8mb 66f
Sat 07/26 11:50pm 11 15 mph 1008.8mb 65f
11:40pm 14 20 mph 1008.8mb 66f
11:30pm 9 13 mph 1009.1mb 64f
11:20pm 8 15 mph 1009.1mb 64f
11:10pm 10 15 mph 1009.1mb 64f
11:00pm 10 14 mph 1009.1mb 64f
10:50pm 9 14 mph 1009.1mb 65f
10:40pm 10 15 mph 1009.5mb 65f
10:30pm 11 15 mph 1009.5mb 64f
10:20pm 11 15 mph 1009.5mb 64f
10:10pm 10 15 mph 1009.8mb 65f
10:00pm 11 15 mph 1009.5mb 65f
9:50pm 11 16 mph 1009.5mb 65f
9:40pm 13 18 mph 1009.5mb 65f
9:30pm 15 20 mph 1009.5mb 64f
9:20pm 13 17 mph 1009.5mb 64f
9:10pm 13 16 mph 1009.5mb 64f
9:00pm 11 18 mph 1009.5mb 64f
8:50pm 13 17 mph 1009.1mb 64f
8:40pm 13 17 mph 1009.1mb 64f
8:30pm 13 17 mph 1009.1mb 64f
8:20pm 11 16 mph 1009.5mb 64f
8:10pm 10 16 mph 1009.1mb 64f
8:00pm 11 16 mph 1009.1mb 65f
7:50pm 11 16 mph 1008.8mb 65f
7:40pm 10 14 mph 1008.8mb 65f
7:30pm 9 15 mph 1008.8mb 65f
7:20pm 10 14 mph 1008.8mb 66f
7:10pm 10 15 mph 1008.8mb 66f
7:00pm 10 15 mph 1009.1mb 66f
6:50pm 10 14 mph 1009.1mb 66f
6:40pm 9 13 mph 1009.1mb 66f
6:30pm 8 14 mph 1009.1mb 65f
6:20pm 10 15 mph 1009.1mb 66f
6:10pm 10 15 mph 1008.8mb 65f
6:00pm 11 17 mph 1008.8mb 66f
5:50pm 11 15 mph 1008.8mb 65f
5:40pm 11 15 mph 1009.1mb 65f
5:30pm 10 16 mph 1009.1mb 66f
5:20pm 11 16 mph 1009.1mb 66f
5:10pm 10 16 mph 1009.5mb 67f
5:00pm 13 17 mph 1009.5mb 66f
4:50pm 14 20 mph 1009.5mb 66f
4:40pm 11 16 mph 1009.8mb 66f
4:30pm 10 14 mph 1009.8mb 67f
4:20pm 10 15 mph 1009.8mb 67f
4:10pm 10 15 mph 1009.8mb 67f
4:00pm 11 16 mph 1009.8mb 68f
3:50pm 10 18 mph 1009.5mb 68f
3:40pm 13 17 mph 1009.8mb 68f
3:30pm 10 16 mph 1009.8mb 68f
3:20pm 13 17 mph 1009.8mb 68f
3:10pm 10 17 mph 1009.8mb 67f
3:00pm 13 18 mph 1010.2mb 67f
2:50pm 13 20 mph 1010.2mb 67f
2:40pm 13 20 mph 1010.2mb 68f
2:30pm 14 18 mph 1010.5mb 67f
2:20pm 13 18 mph 1010.5mb 68f
2:10pm 11 16 mph 1010.5mb 69f
2:00pm 11 17 mph 1010.5mb 69f
1:50pm 11 16 mph 1010.5mb 69f
1:40pm 13 16 mph 1010.2mb 69f
1:30pm 10 15 mph 1010.5mb 69f
1:20pm 9 15 mph 1010.2mb 69f
1:10pm 9 15 mph 1010.2mb 68f
1:00pm 9 15 mph 1010.5mb 68f
12:50pm 13 20 mph 1010.2mb 68f
12:40pm 10 16 mph 1010.2mb 68f
12:30pm 10 15 mph 1010.5mb 68f
12:20pm 9 15 mph 1010.8mb 68f
12:10pm 8 16 mph 1010.8mb 67f
12:00pm 11 18 mph 1010.8mb 67f
11:50am 14 18 mph 1010.8mb 67f
11:40am 13 17 mph 1011.2mb 66f
11:30am 15 20 mph 1011.2mb 66f
11:20am 13 16 mph 1011.2mb 66f
11:10am 10 14 mph 1011.5mb 65f
11:00am 9 14 mph 1011.5mb 65f
10:50am 9 14 mph 1011.5mb 65f
10:40am 11 15 mph 1011.5mb 65f
10:30am 9 15 mph 1011.5mb 65f
10:20am 13 16 mph 1011.5mb 65f
10:10am 13 16 mph 1011.5mb 66f
10:00am 11 17 mph 1011.2mb 65f
9:50am 11 15 mph 1011.2mb 65f
9:40am 11 15 mph 1011.5mb 65f
9:30am 11 15 mph 1011.5mb 64f
9:20am 10 14 mph 1011.5mb 64f
9:10am 9 13 mph 1011.5mb 64f
9:00am 9 13 mph 1011.9mb 63f
8:50am 9 14 mph 1011.9mb 63f
8:40am 10 14 mph 1011.9mb 63f
8:30am 10 15 mph 1011.9mb 64f
8:20am 10 14 mph 1011.5mb 64f
8:10am 10 15 mph 1011.9mb 64f
8:00am 10 15 mph 1011.5mb 64f
7:50am 9 14 mph 1011.9mb 64f
7:40am 11 15 mph 1011.9mb 64f
7:30am 10 16 mph 1011.5mb 64f
7:20am 10 15 mph 1011.5mb 64f
7:10am 10 14 mph 1011.5mb 64f
7:00am 8 13 mph 1011.5mb 63f
6:50am 9 13 mph 1011.5mb 63f
6:40am 9 11 mph 1011.5mb 64f
6:30am 9 10 mph 1011.5mb 63f
6:20am 8 10 mph 1011.5mb 62f
6:10am 7 9 mph 1011.5mb 62f
6:00am 7 10 mph 1011.5mb 62f
5:50am 6 10 mph 1011.9mb 62f
5:40am 8 13 mph 1011.9mb 62f
5:30am 9 11 mph 1011.5mb 62f
5:20am 7 9 mph 1011.5mb 62f
5:10am 7 9 mph 1011.5mb 62f
5:00am 7 10 mph 1011.5mb 62f
4:50am 8 9 mph 1011.5mb 62f
4:40am 6 10 mph 1011.5mb 62f
4:30am 8 11 mph 1011.5mb 62f
4:20am 7 10 mph 1011.5mb 62f
4:10am 7 10 mph 1011.9mb 62f
4:00am 7 10 mph 1012.2mb 62f
3:50am 8 9 mph 1012.2mb 62f
3:40am 7 11 mph 1012.2mb 62f
3:30am 8 11 mph 1012.2mb 62f
3:20am 7 10 mph 1012.2mb 62f
3:10am 6 10 mph 1012.2mb 62f
3:00am 8 13 mph 1012.2mb 62f
2:50am 8 13 mph 1012.2mb 62f
2:40am 8 10 mph 1012.5mb 62f
2:30am 7 11 mph 1012.2mb 62f
2:20am 8 11 mph 1012.2mb 62f
2:10am 9 13 mph 1012.2mb 62f
2:00am 9 14 mph 1012.2mb 62f
1:50am 8 14 mph 1012.2mb 62f
1:40am 10 15 mph 1012.2mb 62f
1:30am 11 16 mph 1012.2mb 62f
1:20am 13 17 mph 1012.5mb 62f
1:10am 13 16 mph 1012.5mb 62f
1:00am 13 17 mph 1012.5mb 62f
12:50am 13 16 mph 1012.5mb 62f
12:40am 13 16 mph 1012.9mb 63f
12:30am 13 17 mph 1012.9mb 63f
12:20am 11 15 mph 1012.9mb 63f
12:10am 11 15 mph 1012.9mb 63f
12:00am 13 17 mph 1012.9mb 63f
Fri 07/25 11:50pm 11 16 mph 1012.9mb 63f
11:40pm 11 15 mph 1012.9mb 63f
11:30pm 11 17 mph 1012.9mb 63f
11:20pm 11 16 mph 1013.2mb 64f
11:10pm 11 15 mph 1013.2mb 64f
11:00pm 11 16 mph 1013.2mb 64f
10:50pm 13 17 mph 1013.5mb 64f
10:40pm 13 17 mph 1013.5mb 64f
10:30pm 14 17 mph 1013.5mb 64f
10:20pm 11 16 mph 1013.2mb 64f
10:10pm 11 15 mph 1013.5mb 64f
10:00pm 10 15 mph 1013.5mb 64f
9:50pm 9 13 mph 1013.5mb 64f
9:40pm 9 11 mph 1013.5mb 63f
9:30pm 9 14 mph 1013.5mb 63f
9:20pm 9 13 mph 1013.5mb 63f
9:10pm 9 13 mph 1013.5mb 62f
9:00pm 8 13 mph 1013.5mb 62f
8:50pm 10 15 mph 1013.5mb 63f
8:40pm 10 14 mph 1013.2mb 63f
8:30pm 9 16 mph 1013.2mb 64f
8:20pm 13 17 mph 1013.2mb 64f
8:10pm 13 18 mph 1013.2mb 64f
8:00pm 13 18 mph 1013.2mb 64f
7:50pm 13 17 mph 1013.2mb 64f
7:40pm 14 18 mph 1013.2mb 64f
7:30pm 13 16 mph 1013.2mb 63f
7:20pm 11 16 mph 1013.5mb 63f
7:10pm 11 15 mph 1013.5mb 63f
7:00pm 10 16 mph 1013.5mb 64f
6:50pm 13 15 mph 1013.5mb 63f
6:40pm 10 15 mph 1013.9mb 63f
6:30pm 10 16 mph 1013.9mb 64f
6:20pm 13 16 mph 1013.9mb 63f
6:10pm 8 16 mph 1014.2mb 63f
6:00pm 13 17 mph 1013.9mb 64f
5:50pm 11 17 mph 1013.9mb 64f
5:40pm 11 17 mph 1014.2mb 63f
5:30pm 13 18 mph 1014.2mb 62f
5:20pm 13 18 mph 1014.6mb 63f
5:10pm 13 18 mph 1014.2mb 63f
5:00pm 13 18 mph 1014.6mb 63f
4:50pm 13 18 mph 1014.6mb 63f
4:40pm 11 17 mph 1014.6mb 64f
4:30pm 13 20 mph 1014.9mb 64f
4:20pm 16 22 mph 1014.6mb 65f
4:10pm 16 22 mph 1014.6mb 66f
4:00pm 17 25 mph 1014.6mb 66f
3:50pm 15 18 mph 1014.6mb 64f
3:40pm 15 24 mph 1014.9mb 65f